createdAt,value
2017-08-16T00:00:22.710Z,15.05
2017-08-16T00:01:32.239Z,14.95
2017-08-16T00:02:41.767Z,15.05
2017-08-16T00:03:50.800Z,15.33
2017-08-16T00:05:00.334Z,14.95
2017-08-16T00:06:09.548Z,15.43
2017-08-16T00:07:18.753Z,15.62
2017-08-16T00:08:28.284Z,15.43
2017-08-16T00:09:37.865Z,16
2017-08-16T00:10:47.078Z,15.9
2017-08-16T00:11:56.606Z,16.09
2017-08-16T00:13:06.138Z,15.43
2017-08-16T00:14:15.664Z,16
2017-08-16T00:15:25.816Z,16.66
2017-08-16T00:16:34.697Z,16
2017-08-16T00:17:44.223Z,16.19
2017-08-16T00:18:54.409Z,16.1
2017-08-16T00:20:04.600Z,15.43
2017-08-16T00:21:13.813Z,16.1
2017-08-16T00:22:23.017Z,15.43
2017-08-16T00:23:32.868Z,14.95
2017-08-16T00:24:41.750Z,15.62
2017-08-16T00:25:51.278Z,15.05
2017-08-16T00:27:00.684Z,15.43
2017-08-16T00:28:10.210Z,15.14
2017-08-16T00:29:19.417Z,15.42
2017-08-16T00:30:28.301Z,15.04
2017-08-16T00:31:37.507Z,15.42
2017-08-16T00:32:46.651Z,15.52
2017-08-16T00:33:56.179Z,15.42
2017-08-16T00:35:06.031Z,16.38
2017-08-16T00:36:15.561Z,17.33
2017-08-16T00:37:25.740Z,16.57
2017-08-16T00:38:35.576Z,17.33
2017-08-16T00:39:45.110Z,17.53
2017-08-16T00:40:54.962Z,16.96
2017-08-16T00:42:05.142Z,17.33
2017-08-16T00:43:14.673Z,17.05
2017-08-16T00:44:24.825Z,16.96
2017-08-16T00:45:34.029Z,17.43
2017-08-16T00:46:43.880Z,17.72
2017-08-16T00:47:53.413Z,17.14
2017-08-16T00:49:02.940Z,17.05
2017-08-16T00:50:13.261Z,17.24
2017-08-16T00:51:23.112Z,17.14
2017-08-16T00:52:32.642Z,18.2
2017-08-16T00:53:42.497Z,17.91
2017-08-16T00:54:52.349Z,17.82
2017-08-16T00:56:02.644Z,17.53
2017-08-16T00:57:12.177Z,17.43
2017-08-16T00:58:21.383Z,17.53
2017-08-16T00:59:30.917Z,17.62
2017-08-16T01:00:40.770Z,17.14
2017-08-16T01:01:50.128Z,17.33
2017-08-16T01:02:59.334Z,16.57
2017-08-16T01:04:08.864Z,16.38
2017-08-16T01:05:18.074Z,16.66
2017-08-16T01:06:27.602Z,17.43
2017-08-16T01:07:36.958Z,17.53
2017-08-16T01:08:46.161Z,17.53
2017-08-16T01:09:56.010Z,17.82
2017-08-16T01:11:05.547Z,17.91
2017-08-16T01:12:15.395Z,18.39
2017-08-16T01:13:25.349Z,19.25
2017-08-16T01:14:34.560Z,20.02
2017-08-16T01:15:43.445Z,20.69
2017-08-16T01:16:53.300Z,20.21
2017-08-16T01:18:02.830Z,19.73
2017-08-16T01:19:12.185Z,19.25
2017-08-16T01:20:21.390Z,19.25
2017-08-16T01:21:30.922Z,18.58
2017-08-16T01:22:41.099Z,18.58
2017-08-16T01:23:50.953Z,18.77
2017-08-16T01:25:00.310Z,19.06
2017-08-16T01:26:10.161Z,19.06
2017-08-16T01:27:20.014Z,19.16
2017-08-16T01:28:29.862Z,18.96
2017-08-16T01:29:39.069Z,18.68
2017-08-16T01:30:48.849Z,19.06
2017-08-16T01:31:59.030Z,19.92
2017-08-16T01:33:08.239Z,20.02
2017-08-16T01:34:17.443Z,19.92
2017-08-16T01:35:26.661Z,19.92
2017-08-16T01:36:35.868Z,19.92
2017-08-16T01:37:45.070Z,20.98
2017-08-16T01:38:54.925Z,21.36
2017-08-16T01:40:05.103Z,21.74
2017-08-16T01:41:14.309Z,21.36
2017-08-16T01:42:24.164Z,20.21
2017-08-16T01:43:33.712Z,20.12
2017-08-16T01:44:43.253Z,20.12
2017-08-16T01:45:52.781Z,20.88
2017-08-16T01:47:02.637Z,21.36
2017-08-16T01:48:12.369Z,21.65
2017-08-16T01:49:21.252Z,21.94
2017-08-16T01:50:30.458Z,21.65
2017-08-16T01:51:39.666Z,22.61
2017-08-16T01:52:49.542Z,22.89
2017-08-16T01:53:59.396Z,23.18
2017-08-16T01:55:08.599Z,22.7
2017-08-16T01:56:17.805Z,22.7
2017-08-16T01:57:27.337Z,22.13
2017-08-16T01:58:37.185Z,21.94
2017-08-16T01:59:46.642Z,22.03
2017-08-16T02:00:56.177Z,23.08
2017-08-16T02:02:05.719Z,23.08
2017-08-16T02:03:14.926Z,24.33
2017-08-16T02:04:24.779Z,23.27
2017-08-16T02:05:34.406Z,23.18
2017-08-16T02:06:44.259Z,23.27
2017-08-16T02:07:54.109Z,23.18
2017-08-16T02:09:03.638Z,23.08
2017-08-16T02:10:12.846Z,23.08
2017-08-16T02:11:22.897Z,23.75
2017-08-16T02:12:32.423Z,23.75
2017-08-16T02:13:41.954Z,23.75
2017-08-16T02:14:51.506Z,23.85
2017-08-16T02:16:01.356Z,23.75
2017-08-16T02:17:10.339Z,24.14
2017-08-16T02:18:20.189Z,24.62
2017-08-16T02:19:30.036Z,24.9
2017-08-16T02:20:38.922Z,23.18
2017-08-16T02:21:48.127Z,23.85
2017-08-16T02:22:57.383Z,23.47
2017-08-16T02:24:07.234Z,23.94
2017-08-16T02:25:16.440Z,23.85
2017-08-16T02:26:25.650Z,23.47
2017-08-16T02:27:34.867Z,23.37
2017-08-16T02:28:44.648Z,23.85
2017-08-16T02:29:54.182Z,24.23
2017-08-16T02:31:03.390Z,23.08
2017-08-16T02:32:12.613Z,23.08
2017-08-16T02:33:22.466Z,23.18
2017-08-16T02:34:32.369Z,23.08
2017-08-16T02:35:41.900Z,22.8
2017-08-16T02:36:51.434Z,23.08
2017-08-16T02:38:00.972Z,22.8
2017-08-16T02:39:10.177Z,23.08
2017-08-16T02:40:19.809Z,24.14
2017-08-16T02:41:29.345Z,24.62
2017-08-16T02:42:38.873Z,23.85
2017-08-16T02:43:48.091Z,23.75
2017-08-16T02:44:57.622Z,23.37
2017-08-16T02:46:07.832Z,24.23
2017-08-16T02:47:17.372Z,23.75
2017-08-16T02:48:26.901Z,23.66
2017-08-16T02:49:37.093Z,23.66
2017-08-16T02:50:46.315Z,23.75
2017-08-16T02:51:56.592Z,23.75
2017-08-16T02:53:05.803Z,23.85
2017-08-16T02:54:15.982Z,22.89
2017-08-16T02:55:25.511Z,22.99
2017-08-16T02:56:34.729Z,22.99
2017-08-16T02:57:44.412Z,22.99
2017-08-16T02:58:53.622Z,24.33
2017-08-16T03:00:03.801Z,22.99
2017-08-16T03:01:13.654Z,22.8
2017-08-16T03:02:22.861Z,23.18
2017-08-16T03:03:32.268Z,24.23
2017-08-16T03:04:41.803Z,23.75
2017-08-16T03:05:51.331Z,24.43
2017-08-16T03:07:00.537Z,23.85
2017-08-16T03:08:10.710Z,23.18
2017-08-16T03:09:20.340Z,22.89
2017-08-16T03:10:30.191Z,23.85
2017-08-16T03:11:39.400Z,23.94
2017-08-16T03:12:48.933Z,23.75
2017-08-16T03:13:58.143Z,23.37
2017-08-16T03:15:07.650Z,23.75
2017-08-16T03:16:17.501Z,23.85
2017-08-16T03:17:26.710Z,24.43
2017-08-16T03:18:36.240Z,24.62
2017-08-16T03:19:46.097Z,24.9
2017-08-16T03:20:56.247Z,23.66
2017-08-16T03:22:05.452Z,24.81
2017-08-16T03:23:15.011Z,25.86
2017-08-16T03:24:24.537Z,25
2017-08-16T03:25:34.713Z,24.81
2017-08-16T03:26:44.624Z,24.04
2017-08-16T03:27:54.152Z,24.14
2017-08-16T03:29:03.354Z,25.1
2017-08-16T03:30:12.241Z,24.9
2017-08-16T03:31:22.098Z,24.9
2017-08-16T03:32:32.249Z,25.48
2017-08-16T03:33:41.782Z,25.67
2017-08-16T03:34:51.970Z,25.48
2017-08-16T03:36:01.496Z,25.29
2017-08-16T03:37:10.702Z,25.57
2017-08-16T03:38:20.703Z,25.48
2017-08-16T03:39:29.913Z,26.15
2017-08-16T03:40:39.442Z,26.06
2017-08-16T03:41:49.297Z,26.25
2017-08-16T03:42:58.508Z,25.96
2017-08-16T03:44:08.737Z,25.77
2017-08-16T03:45:17.943Z,26.06
2017-08-16T03:46:27.476Z,25.96
2017-08-16T03:47:36.691Z,25.77
2017-08-16T03:48:46.222Z,25.77
2017-08-16T03:49:55.805Z,25.67
2017-08-16T03:51:05.012Z,25.96
2017-08-16T03:52:14.553Z,25.96
2017-08-16T03:53:23.761Z,25.96
2017-08-16T03:54:32.966Z,26.25
2017-08-16T03:55:42.873Z,26.43
2017-08-16T03:56:52.732Z,27.01
2017-08-16T03:58:01.615Z,26.34
2017-08-16T03:59:11.142Z,26.15
2017-08-16T04:00:20.994Z,26.23
2017-08-16T04:01:30.526Z,25.56
2017-08-16T04:02:40.393Z,26.53
2017-08-16T04:03:50.243Z,26.92
2017-08-16T04:04:59.121Z,27.11
2017-08-16T04:06:08.655Z,27.11
2017-08-16T04:07:17.911Z,27.01
2017-08-16T04:08:27.118Z,26.81
2017-08-16T04:09:36.973Z,26.92
2017-08-16T04:10:46.832Z,27.39
2017-08-16T04:11:56.363Z,26.92
2017-08-16T04:13:06.364Z,26.34
2017-08-16T04:14:15.245Z,26.63
2017-08-16T04:15:24.453Z,27.01
2017-08-16T04:16:34.307Z,26.53
2017-08-16T04:17:43.833Z,27.2
2017-08-16T04:18:53.516Z,26.92
2017-08-16T04:20:03.384Z,26.82
2017-08-16T04:21:12.265Z,27.01
2017-08-16T04:22:21.475Z,27.09
2017-08-16T04:23:30.355Z,26.9
2017-08-16T04:24:40.360Z,26.72
2017-08-16T04:25:49.888Z,26.53
2017-08-16T04:26:59.743Z,26.63
2017-08-16T04:28:08.950Z,26.43
2017-08-16T04:29:18.478Z,25.86
2017-08-16T04:30:27.782Z,26.34
2017-08-16T04:31:37.313Z,26.15
2017-08-16T04:32:46.521Z,26.34
2017-08-16T04:33:55.725Z,26.25
2017-08-16T04:35:04.959Z,26.34
2017-08-16T04:36:14.175Z,26.53
2017-08-16T04:37:24.352Z,26.63
2017-08-16T04:38:34.207Z,26.63
2017-08-16T04:39:44.381Z,26.25
2017-08-16T04:40:53.910Z,26.63
2017-08-16T04:42:03.114Z,26.53
2017-08-16T04:43:12.006Z,26.92
2017-08-16T04:44:22.189Z,27.01
2017-08-16T04:45:31.718Z,26.63
2017-08-16T04:46:40.922Z,26.53
2017-08-16T04:47:50.278Z,26.72
2017-08-16T04:48:59.809Z,27.39
2017-08-16T04:50:09.661Z,27.49
2017-08-16T04:51:19.193Z,27.59
2017-08-16T04:52:28.401Z,27.87
2017-08-16T04:53:38.089Z,27.49
2017-08-16T04:54:47.620Z,27.87
2017-08-16T04:55:56.823Z,27.59
2017-08-16T04:57:06.354Z,27.78
2017-08-16T04:58:15.567Z,27.59
2017-08-16T04:59:25.104Z,27.78
2017-08-16T05:00:34.637Z,27.78
2017-08-16T05:01:43.845Z,27.68
2017-08-16T05:02:53.698Z,27.39
2017-08-16T05:04:03.320Z,27.59
2017-08-16T05:05:13.325Z,27.59
2017-08-16T05:06:22.208Z,27.97
2017-08-16T05:07:31.420Z,27.68
2017-08-16T05:08:40.950Z,27.59
2017-08-16T05:09:50.540Z,27.87
2017-08-16T05:10:59.903Z,27.59
2017-08-16T05:12:09.436Z,27.3
2017-08-16T05:13:18.320Z,27.2
2017-08-16T05:14:27.854Z,27.22
2017-08-16T05:15:37.059Z,27.01
2017-08-16T05:16:46.368Z,26.25
2017-08-16T05:17:55.897Z,27.5
2017-08-16T05:19:05.431Z,27.68
2017-08-16T05:20:15.650Z,27.59
2017-08-16T05:21:25.511Z,28.16
2017-08-16T05:22:34.897Z,28.74
2017-08-16T05:23:44.435Z,28.64
2017-08-16T05:24:53.976Z,28.56
2017-08-16T05:26:03.189Z,29.33
2017-08-16T05:27:13.070Z,30.36
2017-08-16T05:28:22.576Z,30.27
2017-08-16T05:29:32.115Z,31.32
2017-08-16T05:30:41.784Z,30.46
2017-08-16T05:31:51.313Z,30.47
2017-08-16T05:33:00.518Z,30.46
2017-08-16T05:34:09.757Z,31.43
2017-08-16T05:35:18.969Z,31.23
2017-08-16T05:36:28.498Z,30.96
2017-08-16T05:37:37.759Z,31.51
2017-08-16T05:38:47.636Z,30.84
2017-08-16T05:39:57.165Z,30.08
2017-08-16T05:41:07.025Z,31.15
2017-08-16T05:42:15.914Z,31.9
2017-08-16T05:43:25.442Z,31.51
2017-08-16T05:44:34.673Z,31.61
2017-08-16T05:45:44.205Z,31.51
2017-08-16T05:46:53.755Z,31.61
2017-08-16T05:48:03.615Z,32.57
2017-08-16T05:49:13.464Z,32.67
2017-08-16T05:50:23.001Z,33.24
2017-08-16T05:51:32.880Z,31.23
2017-08-16T05:52:42.412Z,32.67
2017-08-16T05:53:51.618Z,33.33
2017-08-16T05:55:00.824Z,33.14
2017-08-16T05:56:10.686Z,31.99
2017-08-16T05:57:20.872Z,31.99
2017-08-16T05:58:30.083Z,32.67
2017-08-16T05:59:39.672Z,33.24
2017-08-16T06:00:50.169Z,33.14
2017-08-16T06:02:00.021Z,32.38
2017-08-16T06:03:09.881Z,31.99
2017-08-16T06:04:19.100Z,31.82
2017-08-16T06:05:29.111Z,31.24
2017-08-16T06:06:39.296Z,30.38
2017-08-16T06:07:48.502Z,30.57
2017-08-16T06:08:58.679Z,30.57
2017-08-16T06:10:08.313Z,30.19
2017-08-16T06:11:18.187Z,30.86
2017-08-16T06:12:27.720Z,30.86
2017-08-16T06:13:37.602Z,31.15
2017-08-16T06:14:47.141Z,32.29
2017-08-16T06:15:56.363Z,31.82
2017-08-16T06:17:05.254Z,31.63
2017-08-16T06:18:14.794Z,31.43
2017-08-16T06:19:24.324Z,31.63
2017-08-16T06:20:33.855Z,31.82
2017-08-16T06:21:43.381Z,31.15
2017-08-16T06:22:53.012Z,32.2
2017-08-16T06:24:02.546Z,31.63
2017-08-16T06:25:12.740Z,32.2
2017-08-16T06:26:22.592Z,31.64
2017-08-16T06:27:31.803Z,32.7
2017-08-16T06:28:41.535Z,31.43
2017-08-16T06:29:51.096Z,30.4
2017-08-16T06:31:01.275Z,31.16
2017-08-16T06:32:10.832Z,32.21
2017-08-16T06:33:19.721Z,34.23
2017-08-16T06:34:29.033Z,35.36
2017-08-16T06:35:38.260Z,35.27
2017-08-16T06:36:48.117Z,35.38
2017-08-16T06:37:57.003Z,35.27
2017-08-16T06:39:06.869Z,36.05
2017-08-16T06:40:16.128Z,36.63
2017-08-16T06:41:25.982Z,35.36
2017-08-16T06:42:35.834Z,37.85
2017-08-16T06:43:45.038Z,39.1
2017-08-16T06:44:54.894Z,37.57
2017-08-16T06:46:04.850Z,36.99
2017-08-16T06:47:14.711Z,37.47
2017-08-16T06:48:24.253Z,36.9
2017-08-16T06:49:34.104Z,37.68
2017-08-16T06:50:43.311Z,39.58
2017-08-16T06:51:53.544Z,41.02
2017-08-16T06:53:03.426Z,40.64
2017-08-16T06:54:12.639Z,42.84
2017-08-16T06:55:21.846Z,46.67
2017-08-16T06:56:31.058Z,46.96
2017-08-16T06:57:40.787Z,46.48
2017-08-16T06:58:49.998Z,47.25
2017-08-16T06:59:59.530Z,43.6
2017-08-16T07:01:08.419Z,43.73
2017-08-16T07:02:17.952Z,46.39
2017-08-16T07:03:28.289Z,45.23
2017-08-16T07:04:37.822Z,43.32
2017-08-16T07:05:47.033Z,43.34
2017-08-16T07:06:56.895Z,43.73
2017-08-16T07:08:06.451Z,47.56
2017-08-16T07:09:16.297Z,45.74
2017-08-16T07:10:25.508Z,44.2
2017-08-16T07:11:35.039Z,47.37
2017-08-16T07:12:44.890Z,50.63
2017-08-16T07:13:54.420Z,50.43
2017-08-16T07:15:03.309Z,50.79
2017-08-16T07:16:12.844Z,48.21
2017-08-16T07:17:21.734Z,48.23
2017-08-16T07:18:30.955Z,48.8
2017-08-16T07:19:40.161Z,46.7
2017-08-16T07:20:49.570Z,47.27
2017-08-16T07:21:59.424Z,49.48
2017-08-16T07:23:08.633Z,49.29
2017-08-16T07:24:18.486Z,49.96
2017-08-16T07:25:28.343Z,49.38
2017-08-16T07:26:37.975Z,48.71
2017-08-16T07:27:48.157Z,50.05
2017-08-16T07:28:57.372Z,48.8
2017-08-16T07:30:06.596Z,47.85
2017-08-16T07:31:16.131Z,47.75
2017-08-16T07:32:25.792Z,50.53
2017-08-16T07:33:35.003Z,50.82
2017-08-16T07:34:44.865Z,51.1
2017-08-16T07:35:54.729Z,51.49
2017-08-16T07:37:04.268Z,52.16
2017-08-16T07:38:13.901Z,51.97
2017-08-16T07:39:23.437Z,54.75
2017-08-16T07:40:32.969Z,54.37
2017-08-16T07:41:42.504Z,57.24
2017-08-16T07:42:52.034Z,57.53
2017-08-16T07:44:02.045Z,56.38
2017-08-16T07:45:11.580Z,58.2
2017-08-16T07:46:20.790Z,56
2017-08-16T07:47:30.647Z,55.9
2017-08-16T07:48:40.179Z,56.96
2017-08-16T07:49:50.341Z,55.45
2017-08-16T07:50:59.870Z,53.63
2017-08-16T07:52:09.397Z,59.96
2017-08-16T07:53:18.933Z,59.48
2017-08-16T07:54:28.146Z,59.83
2017-08-16T07:55:37.179Z,61.11
2017-08-16T07:56:46.383Z,65.3
2017-08-16T07:57:55.911Z,67.63
2017-08-16T07:59:05.446Z,62.62
2017-08-16T08:00:15.629Z,58.81
2017-08-16T08:01:25.633Z,58.62
2017-08-16T08:02:36.140Z,68.75
2017-08-16T08:03:45.993Z,65.3
2017-08-16T08:04:55.525Z,66
2017-08-16T08:06:05.400Z,65.81
2017-08-16T08:07:15.088Z,63.99
2017-08-16T08:08:24.294Z,60.72
2017-08-16T08:09:33.509Z,66.67
2017-08-16T08:10:42.396Z,66.96
2017-08-16T08:11:51.926Z,73.49
2017-08-16T08:13:01.286Z,72.2
2017-08-16T08:14:11.154Z,70.19
2017-08-16T08:15:21.357Z,68.56
2017-08-16T08:16:31.545Z,75.56
2017-08-16T08:17:41.722Z,71.92
2017-08-16T08:18:51.551Z,73.07
2017-08-16T08:20:00.439Z,81.45
2017-08-16T08:21:10.300Z,68.37
2017-08-16T08:22:19.830Z,68.3
2017-08-16T08:23:29.037Z,69.65
2017-08-16T08:24:39.046Z,72.14
2017-08-16T08:25:48.904Z,68.59
2017-08-16T08:26:58.787Z,67.16
2017-08-16T08:28:08.325Z,66.58
2017-08-16T08:29:18.831Z,62.55
2017-08-16T08:30:27.870Z,69.65
2017-08-16T08:31:37.078Z,68.5
2017-08-16T08:32:46.617Z,69.26
2017-08-16T08:33:56.148Z,67.92
2017-08-16T08:35:05.682Z,67.54
2017-08-16T08:36:15.360Z,65.56
2017-08-16T08:37:24.582Z,61.91
2017-08-16T08:38:34.436Z,67.76
2017-08-16T08:39:43.664Z,64.22
2017-08-16T08:40:53.203Z,68.24
2017-08-16T08:42:03.209Z,72.08
2017-08-16T08:43:12.096Z,67.86
2017-08-16T08:44:21.629Z,78.13
2017-08-16T08:45:31.162Z,76.12
2017-08-16T08:46:41.019Z,68.73
2017-08-16T08:47:50.116Z,72.95
2017-08-16T08:48:59.650Z,72.08
2017-08-16T08:50:08.859Z,65.94
2017-08-16T08:51:18.714Z,67.7
2017-08-16T08:52:28.246Z,71.83
2017-08-16T08:53:37.560Z,76.12
2017-08-16T08:54:47.419Z,68.34
2017-08-16T08:55:57.005Z,84.7
2017-08-16T08:57:06.860Z,91.57
2017-08-16T08:58:16.724Z,96.27
2017-08-16T08:59:26.680Z,95.21
2017-08-16T09:00:35.892Z,93.1
2017-08-16T09:01:45.482Z,79.28
2017-08-16T09:02:55.668Z,86.29
2017-08-16T09:04:05.200Z,74.01
2017-08-16T09:05:15.379Z,88.11
2017-08-16T09:06:24.927Z,82.35
2017-08-16T09:07:33.815Z,93.59
2017-08-16T09:08:43.344Z,94.45
2017-08-16T09:09:52.877Z,94.54
2017-08-16T09:11:02.783Z,78.42
2017-08-16T09:12:11.993Z,85.08
2017-08-16T09:13:21.200Z,91.38
2017-08-16T09:14:30.736Z,76.98
2017-08-16T09:15:39.956Z,81.82
2017-08-16T09:16:48.999Z,74.04
2017-08-16T09:17:57.886Z,77.5
2017-08-16T09:19:07.426Z,90.46
2017-08-16T09:20:16.958Z,81.34
2017-08-16T09:21:26.500Z,92.86
2017-08-16T09:22:36.090Z,91.33
2017-08-16T09:23:45.297Z,87.39
2017-08-16T09:24:54.829Z,91.42
2017-08-16T09:26:04.364Z,95.17
2017-08-16T09:27:13.899Z,84.31
2017-08-16T09:28:23.910Z,97.96
2017-08-16T09:29:33.766Z,93.87
2017-08-16T09:30:42.654Z,99.06
2017-08-16T09:31:52.512Z,93.73
2017-08-16T09:33:01.758Z,97.33
2017-08-16T09:34:11.843Z,87.29
2017-08-16T09:35:21.705Z,91.56
2017-08-16T09:36:31.562Z,89.54
2017-08-16T09:37:40.775Z,87.43
2017-08-16T09:38:50.631Z,89.26
2017-08-16T09:40:00.315Z,99.99
2017-08-16T09:41:09.526Z,99.99
2017-08-16T09:42:19.062Z,95.4
2017-08-16T09:43:28.591Z,89.26
2017-08-16T09:44:38.123Z,92.33
2017-08-16T09:45:47.483Z,91.47
2017-08-16T09:46:57.019Z,92.43
2017-08-16T09:48:06.565Z,99.83
2017-08-16T09:49:15.776Z,92.91
2017-08-16T09:50:25.305Z,99.99
2017-08-16T09:51:34.563Z,96.75
2017-08-16T09:52:44.419Z,90.41
2017-08-16T09:53:53.305Z,99.99
2017-08-16T09:55:02.191Z,88.97
2017-08-16T09:56:11.721Z,99.99
2017-08-16T09:57:21.735Z,98.39
2017-08-16T09:58:31.597Z,99.99
2017-08-16T09:59:40.808Z,99.25
2017-08-16T10:00:50.667Z,99.99
2017-08-16T10:02:00.204Z,99.98
2017-08-16T10:03:10.225Z,99.99
2017-08-16T10:04:19.775Z,99.01
2017-08-16T10:05:29.630Z,99.98
2017-08-16T10:06:38.842Z,99.99
2017-08-16T10:07:48.376Z,94.49
2017-08-16T10:08:57.638Z,99.99
2017-08-16T10:10:06.851Z,97.96
2017-08-16T10:11:16.061Z,99.99
2017-08-16T10:12:25.591Z,99.99
2017-08-16T10:13:35.122Z,96.42
2017-08-16T10:14:45.453Z,99.99
2017-08-16T10:15:54.664Z,99.99
2017-08-16T10:17:03.879Z,99.99
2017-08-16T10:18:12.771Z,99.99
2017-08-16T10:19:21.666Z,99.99
2017-08-16T10:20:31.850Z,99.99
2017-08-16T10:21:41.709Z,99.99
2017-08-16T10:22:50.923Z,99.99
2017-08-16T10:24:00.133Z,99.99
2017-08-16T10:25:10.004Z,99.99
2017-08-16T10:26:19.367Z,99.99
2017-08-16T10:27:28.898Z,99.06
2017-08-16T10:28:38.107Z,99.99
2017-08-16T10:29:47.641Z,99.99
2017-08-16T10:30:57.184Z,99.99
2017-08-16T10:32:06.641Z,99.99
2017-08-16T10:33:16.176Z,99.99
2017-08-16T10:34:25.723Z,99.99
2017-08-16T10:35:35.259Z,99.99
2017-08-16T10:36:44.467Z,99.99
2017-08-16T10:37:54.051Z,99.99
2017-08-16T10:39:03.586Z,99.99
2017-08-16T10:40:13.121Z,99.99
2017-08-16T10:41:22.654Z,99.99
2017-08-16T10:42:31.865Z,99.99
2017-08-16T10:43:41.448Z,99.99
2017-08-16T10:44:50.983Z,99.99
2017-08-16T10:45:59.867Z,99.99
2017-08-16T10:47:09.078Z,98.14
2017-08-16T10:48:18.290Z,99.88
2017-08-16T10:49:27.229Z,99.99
2017-08-16T10:50:36.769Z,99.99
2017-08-16T10:51:45.985Z,99.99
2017-08-16T10:52:55.525Z,99.99
2017-08-16T10:54:05.061Z,99.99
2017-08-16T10:55:14.368Z,99.99
2017-08-16T10:56:23.903Z,99.99
2017-08-16T10:57:33.439Z,99.99
2017-08-16T10:58:42.996Z,99.99
2017-08-16T10:59:52.319Z,99.99
2017-08-16T11:01:02.808Z,99.99
2017-08-16T11:02:13.242Z,99.99
2017-08-16T11:03:23.399Z,99.99
2017-08-16T11:04:32.955Z,99.99
2017-08-16T11:05:42.458Z,99.99
2017-08-16T11:06:52.253Z,99.99
2017-08-16T11:08:02.553Z,99.99
2017-08-16T11:09:12.778Z,99.99
2017-08-16T11:10:22.412Z,99.99
2017-08-16T11:11:31.954Z,99.59
2017-08-16T11:12:41.777Z,99.99
2017-08-16T11:13:52.701Z,99.99
2017-08-16T11:15:02.236Z,99.99
2017-08-16T11:16:11.508Z,96.94
2017-08-16T11:17:22.565Z,95.89
2017-08-16T11:20:11.677Z,99.99
2017-08-16T11:21:20.927Z,99.99
2017-08-16T11:22:31.082Z,99.99
2017-08-16T11:23:40.948Z,99.99
2017-08-16T11:24:49.898Z,99.99
2017-08-16T11:26:00.402Z,98.87
2017-08-16T11:27:10.817Z,99.99
2017-08-16T11:28:20.183Z,95.79
2017-08-16T11:29:29.787Z,96.56
2017-08-16T11:30:38.750Z,99.99
2017-08-16T11:31:48.876Z,91.31
2017-08-16T11:32:58.379Z,99.99
2017-08-16T11:34:08.592Z,99.99
2017-08-16T11:36:56.914Z,93.33
2017-08-16T11:38:07.818Z,90.73
2017-08-16T11:39:16.858Z,98.34
2017-08-16T11:40:26.146Z,98.44
2017-08-16T11:41:35.760Z,99.99
2017-08-16T11:42:46.142Z,97.09
2017-08-16T11:43:57.359Z,96.51
2017-08-16T11:45:07.565Z,99.99
2017-08-16T11:46:17.097Z,93.57
2017-08-16T11:47:27.816Z,90.97
2017-08-16T11:48:38.689Z,93.28
2017-08-16T11:49:51.062Z,95.59
2017-08-16T11:51:01.977Z,92.13
2017-08-16T11:52:11.998Z,96.66
2017-08-16T11:53:21.297Z,99.99
2017-08-16T11:54:31.004Z,95.21
2017-08-16T11:55:42.564Z,91.45
2017-08-16T11:56:52.194Z,90.82
2017-08-16T11:58:02.534Z,97.47
2017-08-16T11:59:12.000Z,92.13
2017-08-16T12:00:21.340Z,91.93
2017-08-16T12:01:30.535Z,90.24
2017-08-16T12:02:39.471Z,95.84
2017-08-16T12:03:50.156Z,89.57
2017-08-16T12:04:59.482Z,88.99
2017-08-16T12:06:09.760Z,89.95
2017-08-16T12:07:19.430Z,99.99
2017-08-16T12:08:28.986Z,99.99
2017-08-16T12:09:38.336Z,96.51
2017-08-16T12:10:47.546Z,90.63
2017-08-16T12:11:58.960Z,93.71
2017-08-16T12:13:08.578Z,90.72
2017-08-16T12:14:18.915Z,97.67
2017-08-16T12:15:28.524Z,95.89
2017-08-16T12:16:37.995Z,99.99
2017-08-16T12:17:47.555Z,99.99
2017-08-16T12:18:56.777Z,90.78
2017-08-16T12:20:06.002Z,90.63
2017-08-16T12:21:16.164Z,94.06
2017-08-16T12:22:25.710Z,92.32
2017-08-16T12:23:35.587Z,89.67
2017-08-16T12:24:45.446Z,99.99
2017-08-16T12:25:55.006Z,85.52
2017-08-16T12:27:04.642Z,90.24
2017-08-16T12:28:14.500Z,93.52
2017-08-16T12:29:23.388Z,87.06
2017-08-16T12:30:33.238Z,92.94
2017-08-16T12:31:42.140Z,88.79
2017-08-16T12:32:51.833Z,87.06
2017-08-16T12:34:01.693Z,96.03
2017-08-16T12:35:11.550Z,89.09
2017-08-16T12:36:21.406Z,89.37
2017-08-16T12:37:30.627Z,97.14
2017-08-16T12:38:40.322Z,91.35
2017-08-16T12:39:49.540Z,98
2017-08-16T12:40:59.088Z,99.99
2017-08-16T12:42:08.628Z,91.83
2017-08-16T12:43:18.166Z,84.25
2017-08-16T12:44:27.751Z,86.47
2017-08-16T12:45:37.293Z,95.93
2017-08-16T12:46:46.510Z,93.71
2017-08-16T12:47:56.048Z,91.88
2017-08-16T12:49:05.582Z,85.6
2017-08-16T12:50:15.970Z,85.6
2017-08-16T12:51:25.184Z,85.12
2017-08-16T12:52:34.398Z,87.34
2017-08-16T12:53:44.270Z,87.24
2017-08-16T12:54:53.808Z,82.56
2017-08-16T12:56:03.171Z,85.6
2017-08-16T12:57:12.707Z,93.23
2017-08-16T12:58:22.250Z,82.9
2017-08-16T12:59:31.143Z,82.51
2017-08-16T13:00:40.036Z,85.22
2017-08-16T13:01:49.403Z,85.8
2017-08-16T13:02:58.973Z,81.74
2017-08-16T13:04:08.524Z,86.96
2017-08-16T13:05:17.739Z,87.44
2017-08-16T13:06:27.284Z,87.44
2017-08-16T13:07:36.808Z,87.05
2017-08-16T13:08:46.373Z,83.33
2017-08-16T13:09:55.610Z,82.17
2017-08-16T13:11:05.145Z,83.33
2017-08-16T13:12:14.682Z,81.2
2017-08-16T13:13:23.730Z,78.79
2017-08-16T13:14:32.953Z,79.89
2017-08-16T13:15:41.852Z,78.34
2017-08-16T13:16:51.393Z,79.02
2017-08-16T13:18:00.287Z,78.54
2017-08-16T13:19:09.847Z,97.57
2017-08-16T13:20:19.111Z,81.68
2017-08-16T13:21:28.666Z,99.89
2017-08-16T13:22:37.883Z,86.17
2017-08-16T13:23:46.776Z,79.8
2017-08-16T13:24:56.372Z,78.25
2017-08-16T13:26:05.938Z,78.06
2017-08-16T13:27:15.431Z,84.86
2017-08-16T13:28:25.318Z,82.83
2017-08-16T13:29:34.877Z,89.01
2017-08-16T13:30:44.765Z,83.41
2017-08-16T13:31:53.987Z,75.78
2017-08-16T13:33:04.173Z,81.87
2017-08-16T13:34:13.721Z,77.13
2017-08-16T13:35:23.585Z,80.65
2017-08-16T13:36:32.964Z,75.52
2017-08-16T13:37:42.515Z,78.23
2017-08-16T13:38:52.073Z,76.53
2017-08-16T13:40:01.300Z,76.62
2017-08-16T13:41:10.846Z,76.82
2017-08-16T13:42:20.468Z,75.95
2017-08-16T13:43:30.020Z,78.56
2017-08-16T13:44:39.240Z,73.66
2017-08-16T13:45:49.430Z,77.63
2017-08-16T13:46:58.324Z,74.82
2017-08-16T13:48:07.922Z,77.63
2017-08-16T13:49:17.469Z,76.76
2017-08-16T13:50:27.685Z,75.4
2017-08-16T13:51:36.905Z,76.56
2017-08-16T13:52:46.176Z,74.57
2017-08-16T13:53:55.740Z,74.96
2017-08-16T13:55:05.286Z,73.41
2017-08-16T13:56:14.833Z,75.73
2017-08-16T13:57:24.707Z,69.92
2017-08-16T13:58:34.268Z,70.11
2017-08-16T13:59:43.594Z,70.98
2017-08-16T14:00:52.500Z,72.77
2017-08-16T14:02:02.369Z,69.95
2017-08-16T14:03:11.596Z,70.83
2017-08-16T14:04:20.830Z,70.57
2017-08-16T14:05:30.386Z,76.19
2017-08-16T14:06:40.294Z,70.09
2017-08-16T14:07:50.505Z,74.58
2017-08-16T14:09:00.064Z,70.9
2017-08-16T14:10:09.612Z,74.71
2017-08-16T14:11:19.492Z,68.21
2017-08-16T14:12:28.715Z,66.3
2017-08-16T14:13:37.621Z,64.95
2017-08-16T14:14:47.173Z,64.56
2017-08-16T14:15:56.134Z,66.11
2017-08-16T14:17:06.004Z,65.24
2017-08-16T14:18:15.574Z,64.11
2017-08-16T14:19:24.801Z,65.08
2017-08-16T14:20:34.717Z,65.08
2017-08-16T14:21:44.272Z,65.95
2017-08-16T14:22:53.830Z,64.3
2017-08-16T14:24:03.095Z,64.4
2017-08-16T14:25:12.701Z,61.71
2017-08-16T14:26:22.577Z,61.32
2017-08-16T14:27:32.785Z,64.62
2017-08-16T14:28:42.030Z,61.51
2017-08-16T14:29:51.906Z,61.61
2017-08-16T14:31:01.811Z,61.22
2017-08-16T14:32:11.371Z,61.02
2017-08-16T14:33:20.919Z,62.68
2017-08-16T14:34:30.468Z,64.2
2017-08-16T14:35:40.352Z,63.81
2017-08-16T14:36:49.945Z,65.27
2017-08-16T14:37:58.846Z,63.98
2017-08-16T14:39:08.397Z,64.85
2017-08-16T14:40:18.269Z,64.75
2017-08-16T14:41:28.470Z,65.11
2017-08-16T14:42:37.742Z,65.5
2017-08-16T14:43:46.988Z,67.34
2017-08-16T14:44:56.530Z,68.76
2017-08-16T14:46:06.403Z,67.99
2017-08-16T14:47:15.632Z,69.15
2017-08-16T14:48:25.336Z,66.14
2017-08-16T14:49:34.573Z,65.66
2017-08-16T14:50:44.117Z,66.27
2017-08-16T14:51:53.021Z,65.5
2017-08-16T14:53:01.926Z,64.82
2017-08-16T14:54:11.522Z,63.46
2017-08-16T14:55:21.070Z,66.79
2017-08-16T14:56:30.784Z,66.69
2017-08-16T14:57:39.680Z,70.06
2017-08-16T14:58:48.903Z,66.47
2017-08-16T14:59:58.544Z,67.14
2017-08-16T15:01:08.086Z,66.27
2017-08-16T15:02:17.633Z,65.59